Time;durP1;ratioP1;P1;durP2;ratioP2;P2;SDS_P1;SDS_P2;PMS_P1;PMS_P2;Temp;Humidity;BMP_temperature;BMP_pressure;BME280_temperature;BME280_humidity;BME280_pressure;Samples;Min_cycle;Max_cycle;Signal;HPM_P1;HPM_P2
2023/03/17 00:01:07;;;;;;;5.40;3.22;;;;;;;;;;5114092;28;20089;-74
2023/03/17 00:03:37;;;;;;;8.75;3.55;;;;;;;;;;5112860;28;20115;-74
2023/03/17 00:06:04;;;;;;;4.78;2.90;;;;;;;;;;5112943;28;20425;-74
2023/03/17 00:08:34;;;;;;;11.48;3.75;;;;;;;;;;5113871;28;20092;-74
2023/03/17 00:11:00;;;;;;;7.68;3.75;;;;;;;;;;5111298;28;20027;-74
2023/03/17 00:13:26;;;;;;;6.68;3.50;;;;;;;;;;5113915;28;20437;-74
2023/03/17 00:15:59;;;;;;;9.23;3.88;;;;;;;;;;5112780;28;20433;-74
2023/03/17 00:18:26;;;;;;;7.37;2.90;;;;;;;;;;5112619;28;20094;-74
2023/03/17 00:20:51;;;;;;;6.88;3.03;;;;;;;;;;5113817;28;20061;-74
2023/03/17 00:23:21;;;;;;;7.15;3.22;;;;;;;;;;5113762;28;20028;-74
2023/03/17 00:25:47;;;;;;;6.03;3.22;;;;;;;;;;5105030;28;20042;-74
2023/03/17 00:28:19;;;;;;;5.80;3.20;;;;;;;;;;5111613;28;20032;-74
2023/03/17 00:30:46;;;;;;;8.40;3.88;;;;;;;;;;5101173;28;20027;-74
2023/03/17 00:33:14;;;;;;;7.22;4.07;;;;;;;;;;5112632;28;20031;-74
2023/03/17 00:35:41;;;;;;;6.32;3.33;;;;;;;;;;5112401;28;20047;-74
2023/03/17 00:38:10;;;;;;;8.30;3.88;;;;;;;;;;5112179;28;20028;-74
2023/03/17 00:40:35;;;;;;;6.97;3.58;;;;;;;;;;5095530;28;20046;-74
2023/03/17 00:43:02;;;;;;;6.78;3.60;;;;;;;;;;5113649;28;20522;-74
2023/03/17 00:45:27;;;;;;;6.25;3.50;;;;;;;;;;5113171;28;20364;-74
2023/03/17 00:47:54;;;;;;;7.18;3.50;;;;;;;;;;5111272;28;20096;-74
2023/03/17 00:50:23;;;;;;;4.78;3.03;;;;;;;;;;5113432;28;20035;-74
2023/03/17 00:52:50;;;;;;;7.38;3.25;;;;;;;;;;5114085;28;20106;-74
2023/03/17 00:55:16;;;;;;;7.25;3.88;;;;;;;;;;5116251;28;20147;-74
2023/03/17 00:57:41;;;;;;;10.48;3.45;;;;;;;;;;5117429;28;20048;-74
2023/03/17 01:00:28;;;;;;;7.72;3.90;;;;;;;;;;5117641;28;20474;-74
2023/03/17 01:02:55;;;;;;;10.20;3.95;;;;;;;;;;5117354;28;20053;-74
2023/03/17 01:05:23;;;;;;;7.15;3.55;;;;;;;;;;5116993;28;20416;-74
2023/03/17 01:07:52;;;;;;;8.90;4.15;;;;;;;;;;5114209;28;20378;-74
2023/03/17 01:10:22;;;;;;;11.23;3.80;;;;;;;;;;5115361;28;20032;-74
2023/03/17 01:12:48;;;;;;;9.65;4.25;;;;;;;;;;5116100;28;20031;-74
2023/03/17 01:15:14;;;;;;;9.65;3.58;;;;;;;;;;5117374;28;20395;-74
2023/03/17 01:17:41;;;;;;;8.35;3.60;;;;;;;;;;5117423;28;20078;-74
2023/03/17 01:20:10;;;;;;;15.40;4.10;;;;;;;;;;5116079;28;20031;-74
2023/03/17 01:22:35;;;;;;;11.77;3.88;;;;;;;;;;5115837;28;20040;-74
2023/03/17 01:25:01;;;;;;;9.98;3.90;;;;;;;;;;5117185;27;20383;-74
2023/03/17 01:27:27;;;;;;;12.70;3.80;;;;;;;;;;5116929;28;20387;-74
2023/03/17 01:29:54;;;;;;;8.38;3.30;;;;;;;;;;5117104;28;20036;-74
2023/03/17 01:32:20;;;;;;;8.98;3.38;;;;;;;;;;5116886;28;20042;-74
2023/03/17 01:34:46;;;;;;;4.88;3.38;;;;;;;;;;5115773;28;20032;-74
2023/03/17 01:37:13;;;;;;;8.40;3.30;;;;;;;;;;5115974;28;20062;-74
2023/03/17 01:39:39;;;;;;;10.23;3.10;;;;;;;;;;5102043;28;20046;-74
2023/03/17 01:42:06;;;;;;;12.48;3.50;;;;;;;;;;5112989;28;20102;-74
2023/03/17 01:44:31;;;;;;;12.85;3.40;;;;;;;;;;5116848;28;20032;-74
2023/03/17 01:46:57;;;;;;;7.10;3.05;;;;;;;;;;5115106;28;20040;-74
2023/03/17 01:49:34;;;;;;;12.40;3.40;;;;;;;;;;5116597;27;20463;-74
2023/03/17 01:52:13;;;;;;;7.45;3.30;;;;;;;;;;5099462;28;20482;-74
2023/03/17 01:54:44;;;;;;;8.13;3.35;;;;;;;;;;5115018;28;20047;-74
2023/03/17 01:57:20;;;;;;;11.30;3.40;;;;;;;;;;5116034;28;20478;-74
2023/03/17 01:59:50;;;;;;;9.48;3.05;;;;;;;;;;5116092;28;20543;-74
2023/03/17 02:02:19;;;;;;;10.52;2.88;;;;;;;;;;5087551;28;20044;-74
2023/03/17 02:04:44;;;;;;;9.18;3.30;;;;;;;;;;5113178;28;20054;-74
2023/03/17 02:07:11;;;;;;;8.25;2.88;;;;;;;;;;5116295;28;20413;-74
2023/03/17 02:09:36;;;;;;;10.23;3.40;;;;;;;;;;5115133;28;20111;-74
2023/03/17 02:12:04;;;;;;;10.52;3.00;;;;;;;;;;5115919;28;20461;-74
2023/03/17 02:14:29;;;;;;;11.65;3.20;;;;;;;;;;5114960;28;20036;-74
2023/03/17 02:16:55;;;;;;;9.10;2.60;;;;;;;;;;5116133;28;20517;-74
2023/03/17 02:19:20;;;;;;;8.90;2.90;;;;;;;;;;5115484;28;20115;-74
2023/03/17 02:21:50;;;;;;;9.88;3.00;;;;;;;;;;5115962;28;20380;-74
2023/03/17 02:24:27;;;;;;;17.90;3.00;;;;;;;;;;5110094;28;20043;-74
2023/03/17 02:26:55;;;;;;;11.98;2.78;;;;;;;;;;5115664;28;20599;-74
2023/03/17 02:29:21;;;;;;;13.82;2.92;;;;;;;;;;5114657;28;20031;-74
2023/03/17 02:31:47;;;;;;;17.05;3.38;;;;;;;;;;5114742;28;20028;-74
2023/03/17 02:34:13;;;;;;;13.88;3.28;;;;;;;;;;5115714;28;20039;-74
2023/03/17 02:36:38;;;;;;;25.05;4.18;;;;;;;;;;5115757;28;20050;-74
2023/03/17 02:39:04;;;;;;;18.77;3.75;;;;;;;;;;5105959;28;20047;-74
2023/03/17 02:41:29;;;;;;;14.00;3.40;;;;;;;;;;5115790;28;20122;-74
2023/03/17 02:43:55;;;;;;;13.35;2.80;;;;;;;;;;5115503;28;20047;-74
2023/03/17 02:46:21;;;;;;;18.05;3.45;;;;;;;;;;5114451;28;20036;-74
2023/03/17 02:48:48;;;;;;;15.70;3.00;;;;;;;;;;5114145;28;20055;-74
2023/03/17 02:51:13;;;;;;;10.73;2.90;;;;;;;;;;5114228;28;20075;-74
2023/03/17 02:53:39;;;;;;;12.68;3.08;;;;;;;;;;5114443;28;20129;-74
2023/03/17 02:56:05;;;;;;;15.43;3.13;;;;;;;;;;5111242;28;20105;-74
2023/03/17 02:58:30;;;;;;;17.33;3.17;;;;;;;;;;5111437;28;20040;-74
2023/03/17 03:00:56;;;;;;;13.68;3.70;;;;;;;;;;5114256;28;20085;-74
2023/03/17 03:03:22;;;;;;;17.10;3.92;;;;;;;;;;5115042;28;20050;-74
2023/03/17 03:05:47;;;;;;;14.40;3.38;;;;;;;;;;5115225;28;20118;-74
2023/03/17 03:08:13;;;;;;;11.20;3.13;;;;;;;;;;5115035;28;20031;-73
2023/03/17 03:10:38;;;;;;;11.38;3.00;;;;;;;;;;5114640;28;20088;-74
2023/03/17 03:13:03;;;;;;;13.10;2.85;;;;;;;;;;5113691;28;20034;-74
2023/03/17 03:15:29;;;;;;;22.08;3.58;;;;;;;;;;5114530;28;20066;-74
2023/03/17 03:17:54;;;;;;;15.43;3.10;;;;;;;;;;5114373;28;20047;-74
2023/03/17 03:20:20;;;;;;;16.10;3.53;;;;;;;;;;5115006;28;20051;-74
2023/03/17 03:22:46;;;;;;;15.95;3.17;;;;;;;;;;5114759;28;20377;-74
2023/03/17 03:25:12;;;;;;;13.55;3.20;;;;;;;;;;5114755;28;20031;-74
2023/03/17 03:27:37;;;;;;;8.75;2.80;;;;;;;;;;5114197;28;20039;-74
2023/03/17 03:30:06;;;;;;;12.93;3.45;;;;;;;;;;5114514;28;20039;-74
2023/03/17 03:32:31;;;;;;;13.00;3.08;;;;;;;;;;5113110;28;20044;-74
2023/03/17 03:34:57;;;;;;;11.40;3.35;;;;;;;;;;5114625;28;20035;-74
2023/03/17 03:37:22;;;;;;;12.63;3.15;;;;;;;;;;5114585;28;20118;-74
2023/03/17 03:39:48;;;;;;;16.20;3.03;;;;;;;;;;5114401;28;20032;-74
2023/03/17 03:42:13;;;;;;;16.05;3.45;;;;;;;;;;5113401;28;20035;-74
2023/03/17 03:44:39;;;;;;;20.33;3.67;;;;;;;;;;5114089;28;20015;-74
2023/03/17 03:47:04;;;;;;;10.57;2.97;;;;;;;;;;5111931;28;20035;-74
2023/03/17 03:49:30;;;;;;;12.10;3.53;;;;;;;;;;5114461;28;20035;-74
2023/03/17 03:51:55;;;;;;;8.60;3.30;;;;;;;;;;5112415;28;20030;-73
2023/03/17 03:54:21;;;;;;;11.35;3.00;;;;;;;;;;5113994;28;20048;-74
2023/03/17 03:56:46;;;;;;;13.73;3.92;;;;;;;;;;5112882;28;20043;-74
2023/03/17 03:59:11;;;;;;;14.13;3.97;;;;;;;;;;5114137;28;20038;-74
2023/03/17 04:01:38;;;;;;;9.73;3.40;;;;;;;;;;5114104;28;20047;-74
2023/03/17 04:04:04;;;;;;;10.35;3.78;;;;;;;;;;5114247;28;20043;-74
2023/03/17 04:06:30;;;;;;;15.52;4.15;;;;;;;;;;5113985;28;20030;-74
2023/03/17 04:08:55;;;;;;;11.10;3.42;;;;;;;;;;5114166;28;20039;-74
2023/03/17 04:11:20;;;;;;;13.02;3.47;;;;;;;;;;5112447;28;20126;-74
2023/03/17 04:13:46;;;;;;;14.00;3.90;;;;;;;;;;5114071;28;20082;-74
2023/03/17 04:16:11;;;;;;;13.77;4.40;;;;;;;;;;5113800;28;20451;-74
2023/03/17 04:18:37;;;;;;;16.85;4.53;;;;;;;;;;5111399;28;20097;-74
2023/03/17 04:21:02;;;;;;;20.83;4.72;;;;;;;;;;5112788;28;20038;-74
2023/03/17 04:23:28;;;;;;;17.83;3.90;;;;;;;;;;5113943;28;20067;-74
2023/03/17 04:25:53;;;;;;;17.85;3.70;;;;;;;;;;5113403;28;20403;-74
2023/03/17 04:28:19;;;;;;;16.70;4.05;;;;;;;;;;5110738;28;20020;-74
2023/03/17 04:30:45;;;;;;;22.75;4.80;;;;;;;;;;5113644;28;20050;-74
2023/03/17 04:33:10;;;;;;;26.92;4.60;;;;;;;;;;5112364;28;20169;-74
2023/03/17 04:35:36;;;;;;;20.85;5.00;;;;;;;;;;5113283;28;20066;-74
2023/03/17 04:38:01;;;;;;;22.75;4.40;;;;;;;;;;5113237;28;20093;-74
2023/03/17 04:40:27;;;;;;;20.48;5.40;;;;;;;;;;5113443;28;20050;-74
2023/03/17 04:42:52;;;;;;;20.02;4.90;;;;;;;;;;5113465;28;20028;-74
2023/03/17 04:45:18;;;;;;;26.00;4.72;;;;;;;;;;5113497;28;20046;-75
2023/03/17 04:47:46;;;;;;;21.67;4.68;;;;;;;;;;5110906;28;20040;-74
2023/03/17 04:50:13;;;;;;;18.40;4.35;;;;;;;;;;5112596;28;20080;-74
2023/03/17 04:52:39;;;;;;;16.92;5.30;;;;;;;;;;5111775;28;20402;-74
2023/03/17 04:55:07;;;;;;;22.92;4.72;;;;;;;;;;5111962;28;20054;-74
2023/03/17 04:57:33;;;;;;;15.60;4.47;;;;;;;;;;5112183;28;20030;-74
2023/03/17 04:59:58;;;;;;;23.88;4.38;;;;;;;;;;5113062;28;20119;-74
2023/03/17 05:02:23;;;;;;;15.68;4.72;;;;;;;;;;5113449;28;20035;-74
2023/03/17 05:04:49;;;;;;;20.17;4.35;;;;;;;;;;5113268;28;20081;-74
2023/03/17 05:07:14;;;;;;;20.98;4.18;;;;;;;;;;5113351;28;20032;-74
2023/03/17 05:09:40;;;;;;;12.07;4.50;;;;;;;;;;5102408;28;20051;-74
2023/03/17 05:12:07;;;;;;;12.38;3.60;;;;;;;;;;5112235;28;20043;-74
2023/03/17 05:14:33;;;;;;;17.75;4.07;;;;;;;;;;5113160;28;20036;-74
2023/03/17 05:16:58;;;;;;;23.33;3.90;;;;;;;;;;5113301;28;20118;-74
2023/03/17 05:19:24;;;;;;;24.83;4.07;;;;;;;;;;5113166;28;20039;-74
2023/03/17 05:21:49;;;;;;;18.13;3.95;;;;;;;;;;5111463;28;20467;-74
2023/03/17 05:24:15;;;;;;;27.23;4.05;;;;;;;;;;5111716;28;20055;-74
2023/03/17 05:26:40;;;;;;;12.65;3.25;;;;;;;;;;5113224;28;20391;-74
2023/03/17 05:29:07;;;;;;;29.67;4.18;;;;;;;;;;5104044;28;20054;-74
2023/03/17 05:31:33;;;;;;;22.20;3.55;;;;;;;;;;5108871;28;20042;-74
2023/03/17 05:33:58;;;;;;;11.55;3.67;;;;;;;;;;5112240;28;20028;-74
2023/03/17 05:36:24;;;;;;;18.30;3.60;;;;;;;;;;5109841;28;20397;-74
2023/03/17 05:38:50;;;;;;;23.25;4.00;;;;;;;;;;5112866;28;20032;-74
2023/03/17 05:41:15;;;;;;;17.83;3.60;;;;;;;;;;5115568;28;20031;-74
2023/03/17 05:43:41;;;;;;;16.75;4.28;;;;;;;;;;5116683;28;20070;-74
2023/03/17 05:46:07;;;;;;;17.30;3.67;;;;;;;;;;5115411;28;20036;-74
2023/03/17 05:48:32;;;;;;;18.25;3.35;;;;;;;;;;5111075;28;20088;-74
2023/03/17 05:50:59;;;;;;;23.23;3.67;;;;;;;;;;5116614;28;20433;-74
2023/03/17 05:53:24;;;;;;;25.73;3.90;;;;;;;;;;5116467;27;20441;-74
2023/03/17 05:55:51;;;;;;;13.73;3.00;;;;;;;;;;5115307;28;20042;-74
2023/03/17 05:58:17;;;;;;;28.63;3.47;;;;;;;;;;5115956;28;20105;-74
2023/03/17 06:00:43;;;;;;;19.00;3.55;;;;;;;;;;5107965;28;20048;-74
2023/03/17 06:03:08;;;;;;;12.07;2.78;;;;;;;;;;5115084;28;20031;-74
2023/03/17 06:05:34;;;;;;;15.77;2.90;;;;;;;;;;5102387;28;20044;-74
2023/03/17 06:08:00;;;;;;;20.00;3.38;;;;;;;;;;5116302;28;20387;-74
2023/03/17 06:10:26;;;;;;;25.88;3.95;;;;;;;;;;5116326;28;20058;-74
2023/03/17 06:12:51;;;;;;;23.67;3.67;;;;;;;;;;5116145;28;20046;-74
2023/03/17 06:15:17;;;;;;;25.00;3.05;;;;;;;;;;5116099;28;20039;-74
2023/03/17 06:17:43;;;;;;;19.35;3.25;;;;;;;;;;5116169;28;20027;-74
2023/03/17 06:20:10;;;;;;;20.83;3.28;;;;;;;;;;5115844;28;20395;-74
2023/03/17 06:22:36;;;;;;;20.58;4.07;;;;;;;;;;5115752;28;20465;-74
2023/03/17 06:25:03;;;;;;;21.13;3.45;;;;;;;;;;5116123;28;20038;-74
2023/03/17 06:27:28;;;;;;;16.40;2.65;;;;;;;;;;5114787;28;20024;-74
2023/03/17 06:29:54;;;;;;;14.25;2.90;;;;;;;;;;5115856;28;20093;-74
2023/03/17 06:32:19;;;;;;;23.85;3.20;;;;;;;;;;5115894;28;20035;-74
2023/03/17 06:34:45;;;;;;;23.58;3.22;;;;;;;;;;5115473;28;20032;-74
2023/03/17 06:37:10;;;;;;;20.15;3.30;;;;;;;;;;5115497;28;20035;-74
2023/03/17 06:39:36;;;;;;;25.95;3.50;;;;;;;;;;5114489;28;20032;-74
2023/03/17 06:42:03;;;;;;;13.75;2.78;;;;;;;;;;5115738;28;20043;-74
2023/03/17 06:44:28;;;;;;;12.95;3.10;;;;;;;;;;5114378;28;20039;-74
2023/03/17 06:46:54;;;;;;;17.73;2.80;;;;;;;;;;5115570;28;20467;-74
2023/03/17 06:49:20;;;;;;;10.88;2.40;;;;;;;;;;5115361;28;20483;-74
2023/03/17 06:51:45;;;;;;;24.20;3.35;;;;;;;;;;5114287;28;20036;-74
2023/03/17 06:54:11;;;;;;;22.55;3.10;;;;;;;;;;5115405;28;20065;-74
2023/03/17 06:56:36;;;;;;;18.45;3.15;;;;;;;;;;5115276;28;20035;-74
2023/03/17 06:59:02;;;;;;;26.10;3.03;;;;;;;;;;5113027;28;20035;-74
2023/03/17 07:01:27;;;;;;;14.30;3.40;;;;;;;;;;5114742;28;20034;-74
2023/03/17 07:03:53;;;;;;;22.65;3.13;;;;;;;;;;5115398;28;20040;-74
2023/03/17 07:06:18;;;;;;;14.65;2.88;;;;;;;;;;5113413;28;20042;-74
2023/03/17 07:08:45;;;;;;;16.38;3.10;;;;;;;;;;5115220;28;20077;-74
2023/03/17 07:11:11;;;;;;;19.00;4.50;;;;;;;;;;5115178;28;20040;-74
2023/03/17 07:13:37;;;;;;;21.25;4.35;;;;;;;;;;5114900;28;20483;-74
2023/03/17 07:16:03;;;;;;;9.25;3.13;;;;;;;;;;5114693;28;20512;-74
2023/03/17 07:18:33;;;;;;;13.13;3.65;;;;;;;;;;5113377;28;20032;-74
2023/03/17 07:21:01;;;;;;;15.50;3.92;;;;;;;;;;5113713;28;20032;-74
2023/03/17 07:23:28;;;;;;;22.00;4.82;;;;;;;;;;5111431;28;20024;-74
2023/03/17 07:25:54;;;;;;;17.55;3.55;;;;;;;;;;5114581;28;20493;-74
2023/03/17 07:28:20;;;;;;;30.27;6.78;;;;;;;;;;5114710;28;20082;-74
2023/03/17 07:30:48;;;;;;;24.17;5.45;;;;;;;;;;5114818;28;20038;-74
2023/03/17 07:33:14;;;;;;;22.08;3.53;;;;;;;;;;5114784;27;20074;-74
2023/03/17 07:35:40;;;;;;;27.05;3.20;;;;;;;;;;5114563;28;20035;-74
2023/03/17 07:38:05;;;;;;;16.88;4.13;;;;;;;;;;5111845;28;21026;-74
2023/03/17 07:40:31;;;;;;;19.58;3.22;;;;;;;;;;5114636;28;20118;-74
2023/03/17 07:42:56;;;;;;;22.02;3.03;;;;;;;;;;5114396;28;20050;-74
2023/03/17 07:45:22;;;;;;;15.65;2.90;;;;;;;;;;5114455;28;20035;-74
2023/03/17 07:47:47;;;;;;;14.35;2.15;;;;;;;;;;5106393;28;20035;-74
2023/03/17 07:50:14;;;;;;;10.88;2.67;;;;;;;;;;5114243;28;20505;-74
2023/03/17 07:52:39;;;;;;;11.73;2.15;;;;;;;;;;5114348;28;20032;-74
2023/03/17 07:55:09;;;;;;;17.10;2.80;;;;;;;;;;5114340;28;20118;-74
2023/03/17 07:57:35;;;;;;;20.10;3.42;;;;;;;;;;5102390;28;20067;-74
2023/03/17 08:00:02;;;;;;;11.50;3.20;;;;;;;;;;5112923;28;20031;-74
2023/03/17 08:02:28;;;;;;;15.25;3.25;;;;;;;;;;5113837;28;20119;-75
2023/03/17 08:04:54;;;;;;;18.75;4.15;;;;;;;;;;5114257;28;20111;-75
2023/03/17 08:07:19;;;;;;;10.10;3.03;;;;;;;;;;5113977;27;20110;-74
2023/03/17 08:09:46;;;;;;;13.25;2.63;;;;;;;;;;5114089;28;20040;-74
2023/03/17 08:12:12;;;;;;;13.30;3.22;;;;;;;;;;5113974;28;20110;-74
2023/03/17 08:14:38;;;;;;;7.90;2.20;;;;;;;;;;5113858;28;20059;-74
2023/03/17 08:17:03;;;;;;;13.65;3.45;;;;;;;;;;5114170;28;20071;-74
2023/03/17 08:19:29;;;;;;;19.05;2.60;;;;;;;;;;5113965;28;20159;-74
2023/03/17 08:21:54;;;;;;;18.08;2.60;;;;;;;;;;5113996;28;20023;-74
2023/03/17 08:24:19;;;;;;;12.32;2.00;;;;;;;;;;5113850;28;20028;-74
2023/03/17 08:26:49;;;;;;;14.23;2.85;;;;;;;;;;5113519;28;20084;-74
2023/03/17 08:29:14;;;;;;;9.23;1.98;;;;;;;;;;5112683;28;20036;-74
2023/03/17 08:31:40;;;;;;;9.98;2.10;;;;;;;;;;5113606;28;20046;-74
2023/03/17 08:34:06;;;;;;;11.20;2.08;;;;;;;;;;5112647;28;20093;-74
2023/03/17 08:36:32;;;;;;;11.68;2.97;;;;;;;;;;5113521;28;20063;-74
2023/03/17 08:38:57;;;;;;;13.65;2.40;;;;;;;;;;5113684;28;20039;-74
2023/03/17 08:41:25;;;;;;;15.23;2.28;;;;;;;;;;5112467;28;20046;-74
2023/03/17 08:43:53;;;;;;;19.63;2.83;;;;;;;;;;5111141;28;20024;-75
2023/03/17 08:46:27;;;;;;;9.68;1.95;;;;;;;;;;5113463;28;20491;-74
2023/03/17 08:48:55;;;;;;;13.98;2.78;;;;;;;;;;5102592;28;20067;-74
2023/03/17 08:51:22;;;;;;;6.95;2.60;;;;;;;;;;5113151;28;20047;-74
2023/03/17 08:53:48;;;;;;;11.23;3.05;;;;;;;;;;5112074;28;20048;-74
2023/03/17 08:56:14;;;;;;;14.32;4.47;;;;;;;;;;5113246;28;20042;-74
2023/03/17 08:58:41;;;;;;;15.32;3.53;;;;;;;;;;5113031;28;20036;-74
2023/03/17 09:01:08;;;;;;;11.95;2.90;;;;;;;;;;5113529;28;20038;-74
2023/03/17 09:03:33;;;;;;;13.88;2.72;;;;;;;;;;5113334;28;20117;-74
2023/03/17 09:05:59;;;;;;;11.93;2.33;;;;;;;;;;5113473;28;20045;-74
2023/03/17 09:08:26;;;;;;;13.23;2.60;;;;;;;;;;5113241;28;20032;-74
2023/03/17 09:10:53;;;;;;;9.15;2.53;;;;;;;;;;5113236;28;20034;-74
2023/03/17 09:13:18;;;;;;;10.70;2.08;;;;;;;;;;5113446;28;20047;-74
2023/03/17 09:15:44;;;;;;;12.00;3.03;;;;;;;;;;5114473;28;20413;-74
2023/03/17 09:18:10;;;;;;;11.27;3.20;;;;;;;;;;5117300;28;20039;-74
2023/03/17 09:20:36;;;;;;;10.07;2.13;;;;;;;;;;5117089;28;20039;-74
2023/03/17 09:23:08;;;;;;;15.07;3.53;;;;;;;;;;5117307;28;20031;-74
2023/03/17 09:25:35;;;;;;;13.10;3.15;;;;;;;;;;5117074;28;20046;-74
2023/03/17 09:28:00;;;;;;;11.63;2.72;;;;;;;;;;5116048;28;20040;-74
2023/03/17 09:30:26;;;;;;;11.20;2.40;;;;;;;;;;5116972;28;20095;-74
2023/03/17 09:32:52;;;;;;;16.55;2.45;;;;;;;;;;5117015;28;20071;-74
2023/03/17 09:35:18;;;;;;;8.48;2.75;;;;;;;;;;5115636;28;20543;-74
2023/03/17 09:37:43;;;;;;;11.57;3.10;;;;;;;;;;5114637;28;20032;-74
2023/03/17 09:40:12;;;;;;;12.55;3.03;;;;;;;;;;5116437;28;20044;-74
2023/03/17 09:42:52;;;;;;;12.25;2.60;;;;;;;;;;5098621;28;20088;-75
2023/03/17 09:45:30;;;;;;;15.43;3.35;;;;;;;;;;5106223;28;20071;-75
2023/03/17 09:48:34;;;;;;;13.15;3.00;;;;;;;;;;5103834;28;20399;-76
2023/03/17 09:51:09;;;;;;;11.77;2.90;;;;;;;;;;5085711;28;20399;-74
2023/03/17 09:53:40;;;;;;;16.58;2.53;;;;;;;;;;5111787;28;20047;-74
2023/03/17 09:56:14;;;;;;;12.18;2.60;;;;;;;;;;5114734;28;20031;-74
2023/03/17 09:58:41;;;;;;;15.55;2.58;;;;;;;;;;5091481;28;20097;-74
2023/03/17 10:01:08;;;;;;;8.30;2.30;;;;;;;;;;5115493;28;20532;-74
2023/03/17 10:03:36;;;;;;;11.57;2.20;;;;;;;;;;5095715;28;20039;-75
2023/03/17 10:06:20;;;;;;;8.68;2.08;;;;;;;;;;5099128;28;20501;-75
2023/03/17 10:08:56;;;;;;;9.23;2.35;;;;;;;;;;5111940;28;20039;-75
2023/03/17 10:11:40;;;;;;;11.02;1.90;;;;;;;;;;5099437;28;20023;-75
2023/03/17 10:14:22;;;;;;;;;;;;;;;;;;5105121;28;20491;-75
2023/03/17 10:17:00;;;;;;;11.85;1.85;;;;;;;;;;5100816;28;19915;-74
2023/03/17 10:19:52;;;;;;;8.40;2.38;;;;;;;;;;5104796;28;20038;-75
2023/03/17 10:22:33;;;;;;;10.10;2.00;;;;;;;;;;5092472;28;20051;-75
2023/03/17 10:25:15;;;;;;;12.25;1.83;;;;;;;;;;5094270;28;20040;-74
2023/03/17 10:27:42;;;;;;;10.13;2.00;;;;;;;;;;5088553;28;20070;-74
2023/03/17 10:30:16;;;;;;;8.68;1.55;;;;;;;;;;5082660;28;20901;-74
2023/03/17 10:32:42;;;;;;;13.32;1.80;;;;;;;;;;5086164;28;20035;-74
2023/03/17 10:35:10;;;;;;;12.85;1.92;;;;;;;;;;5090645;28;20464;-74
2023/03/17 10:37:36;;;;;;;9.30;1.90;;;;;;;;;;5103558;28;20028;-74
2023/03/17 10:40:09;;;;;;;11.95;2.33;;;;;;;;;;5104193;28;20448;-74
2023/03/17 10:42:46;;;;;;;10.07;2.40;;;;;;;;;;5097887;28;20048;-75
2023/03/17 10:45:23;;;;;;;13.95;2.47;;;;;;;;;;5104208;28;20083;-75
2023/03/17 10:47:49;;;;;;;6.25;1.75;;;;;;;;;;5087553;28;20501;-74
2023/03/17 10:50:18;;;;;;;9.65;1.85;;;;;;;;;;5108664;28;20023;-74
2023/03/17 10:52:47;;;;;;;13.60;2.08;;;;;;;;;;5109819;28;20104;-74
2023/03/17 10:55:20;;;;;;;13.30;1.70;;;;;;;;;;5109601;28;20044;-75
2023/03/17 10:58:02;;;;;;;12.82;1.80;;;;;;;;;;5108928;28;20054;-74
2023/03/17 11:00:33;;;;;;;9.85;1.80;;;;;;;;;;5099613;28;20042;-74
2023/03/17 11:03:03;;;;;;;9.80;1.67;;;;;;;;;;5107016;28;20047;-74
2023/03/17 11:05:29;;;;;;;11.98;1.67;;;;;;;;;;5100964;28;20127;-74
2023/03/17 11:08:14;;;;;;;11.48;1.60;;;;;;;;;;5106429;28;20458;-74
2023/03/17 11:10:40;;;;;;;5.78;1.42;;;;;;;;;;5102548;28;20040;-74
2023/03/17 11:13:07;;;;;;;12.77;1.50;;;;;;;;;;5108079;28;20039;-74
2023/03/17 11:15:33;;;;;;;6.75;1.50;;;;;;;;;;5098943;28;20495;-74
2023/03/17 11:18:25;;;;;;;9.70;1.45;;;;;;;;;;5103350;28;20539;-74
2023/03/17 11:20:53;;;;;;;9.88;1.63;;;;;;;;;;5083238;28;20055;-74
2023/03/17 11:23:37;;;;;;;6.75;1.63;;;;;;;;;;5104196;28;20475;-75
2023/03/17 11:26:05;;;;;;;;;;;;;;;;;;5104417;28;20043;-74
2023/03/17 11:28:34;;;;;;;7.72;1.85;;;;;;;;;;5100191;27;19916;-74
2023/03/17 11:31:14;;;;;;;6.78;1.30;;;;;;;;;;5098613;28;20043;-75
2023/03/17 11:33:59;;;;;;;6.65;1.50;;;;;;;;;;5095911;28;20036;-75
2023/03/17 11:36:33;;;;;;;7.10;1.38;;;;;;;;;;5108259;28;20048;-75
2023/03/17 11:39:15;;;;;;;12.60;1.98;;;;;;;;;;5105155;28;20071;-75
2023/03/17 11:42:16;;;;;;;10.50;1.50;;;;;;;;;;5095526;28;20039;-75
2023/03/17 11:45:00;;;;;;;9.50;1.52;;;;;;;;;;5101732;28;20126;-75
2023/03/17 11:47:31;;;;;;;6.30;1.23;;;;;;;;;;5106166;28;20035;-75
2023/03/17 11:50:16;;;;;;;9.52;1.67;;;;;;;;;;5099511;28;20036;-75
2023/03/17 11:52:55;;;;;;;10.32;2.00;;;;;;;;;;5093929;28;20372;-74
2023/03/17 11:55:24;;;;;;;9.80;1.40;;;;;;;;;;5101752;28;20051;-74
2023/03/17 11:58:00;;;;;;;9.57;1.67;;;;;;;;;;5056383;28;20109;-74
2023/03/17 12:00:33;;;;;;;10.80;1.48;;;;;;;;;;5094915;28;20399;-74
2023/03/17 12:03:16;;;;;;;12.00;1.55;;;;;;;;;;5090694;28;20039;-74
2023/03/17 12:05:45;;;;;;;5.60;1.25;;;;;;;;;;5109190;28;20054;-74
2023/03/17 12:08:36;;;;;;;8.27;1.17;;;;;;;;;;5109247;28;20092;-74
2023/03/17 12:11:06;;;;;;;15.80;3.47;;;;;;;;;;5101287;28;20039;-74
2023/03/17 12:13:41;;;;;;;8.02;1.58;;;;;;;;;;5107274;28;20039;-74
2023/03/17 12:16:26;;;;;;;8.27;1.30;;;;;;;;;;5105612;28;20040;-74
2023/03/17 12:19:13;;;;;;;10.23;1.73;;;;;;;;;;5097682;28;20039;-75
2023/03/17 12:21:55;;;;;;;9.52;1.60;;;;;;;;;;5105960;28;20040;-75
2023/03/17 12:24:27;;;;;;;6.65;1.85;;;;;;;;;;5096131;28;20044;-75
2023/03/17 12:26:54;;;;;;;7.28;1.70;;;;;;;;;;5098897;28;20114;-75
2023/03/17 12:29:31;;;;;;;9.93;1.58;;;;;;;;;;5107388;28;20402;-75
2023/03/17 12:32:08;;;;;;;11.30;1.90;;;;;;;;;;5108363;28;20103;-74
2023/03/17 12:34:43;;;;;;;10.85;1.77;;;;;;;;;;5107889;28;20050;-75
2023/03/17 12:37:08;;;;;;;13.50;2.05;;;;;;;;;;5107873;28;20078;-74
2023/03/17 12:39:35;;;;;;;6.78;2.25;;;;;;;;;;5104843;28;20075;-75
2023/03/17 12:42:38;;;;;;;8.75;1.73;;;;;;;;;;5108805;28;20039;-75
2023/03/17 12:45:28;;;;;;;11.88;1.73;;;;;;;;;;5101584;28;20070;-75
2023/03/17 12:48:11;;;;;;;9.45;1.40;;;;;;;;;;5096745;28;20032;-75
2023/03/17 12:51:05;;;;;;;9.05;1.80;;;;;;;;;;5112146;28;20063;-75
2023/03/17 12:53:37;;;;;;;6.73;1.37;;;;;;;;;;5111217;28;20511;-75
2023/03/17 12:56:30;;;;;;;7.95;1.50;;;;;;;;;;5105721;28;20284;-75
2023/03/17 12:59:02;;;;;;;5.93;1.20;;;;;;;;;;5082358;28;20097;-74
2023/03/17 13:01:44;;;;;;;6.97;1.30;;;;;;;;;;5108557;28;20043;-75
2023/03/17 13:04:19;;;;;;;7.00;1.20;;;;;;;;;;5112922;27;20054;-75
2023/03/17 13:07:22;;;;;;;8.25;1.40;;;;;;;;;;5111521;28;20047;-75
2023/03/17 13:09:53;;;;;;;7.82;1.40;;;;;;;;;;5112886;28;20038;-74
2023/03/17 13:12:43;;;;;;;3.97;1.20;;;;;;;;;;5114519;28;20374;-75
2023/03/17 13:15:47;;;;;;;5.32;1.00;;;;;;;;;;5105528;28;20036;-75
2023/03/17 13:18:13;;;;;;;4.63;1.17;;;;;;;;;;5111454;28;20399;-75
2023/03/17 13:20:42;;;;;;;7.05;1.23;;;;;;;;;;5111105;27;20024;-75
2023/03/17 13:23:12;;;;;;;8.15;1.48;;;;;;;;;;5113842;28;20066;-75
2023/03/17 13:25:37;;;;;;;15.27;1.73;;;;;;;;;;5111302;28;20028;-75
2023/03/17 13:28:09;;;;;;;7.82;1.40;;;;;;;;;;5114059;27;20493;-75
2023/03/17 13:30:39;;;;;;;7.35;1.15;;;;;;;;;;5113445;28;20107;-75
2023/03/17 13:33:08;;;;;;;10.05;1.70;;;;;;;;;;5114011;28;20080;-75
2023/03/17 13:36:04;;;;;;;5.75;1.00;;;;;;;;;;5112554;28;20479;-75
2023/03/17 13:38:40;;;;;;;12.23;1.63;;;;;;;;;;5112403;28;20372;-76
2023/03/17 13:41:06;;;;;;;11.93;1.77;;;;;;;;;;5111783;28;20080;-75
2023/03/17 13:44:02;;;;;;;7.63;1.30;;;;;;;;;;5112614;28;20032;-75
2023/03/17 13:46:42;;;;;;;7.55;1.35;;;;;;;;;;5110022;28;20554;-75
2023/03/17 13:49:18;;;;;;;8.75;1.58;;;;;;;;;;5110670;28;20450;-75
2023/03/17 13:52:07;;;;;;;10.75;1.50;;;;;;;;;;5112841;28;20027;-75
2023/03/17 13:54:39;;;;;;;10.30;1.42;;;;;;;;;;5107742;28;20046;-75
2023/03/17 13:57:27;;;;;;;11.07;1.98;;;;;;;;;;5110022;28;20101;-75
2023/03/17 14:00:00;;;;;;;4.63;0.82;;;;;;;;;;5110652;28;20032;-75
2023/03/17 14:02:29;;;;;;;6.80;1.55;;;;;;;;;;5112719;28;20055;-76
2023/03/17 14:04:59;;;;;;;11.27;1.50;;;;;;;;;;5112513;28;20040;-75
2023/03/17 14:07:28;;;;;;;9.40;1.42;;;;;;;;;;5114509;28;20488;-75
2023/03/17 14:10:03;;;;;;;13.52;2.22;;;;;;;;;;5115869;28;20039;-76
2023/03/17 14:12:41;;;;;;;9.05;1.52;;;;;;;;;;5115314;28;20088;-76
2023/03/17 14:15:23;;;;;;;10.43;1.50;;;;;;;;;;5105253;28;20036;-76
2023/03/17 14:18:03;;;;;;;7.20;1.35;;;;;;;;;;5114141;28;20043;-75
2023/03/17 14:20:28;;;;;;;7.65;1.23;;;;;;;;;;5112748;28;20036;-75
2023/03/17 14:23:00;;;;;;;7.63;1.25;;;;;;;;;;5113844;27;20046;-75
2023/03/17 14:25:30;;;;;;;8.73;1.42;;;;;;;;;;5114329;28;20044;-75
2023/03/17 14:27:56;;;;;;;10.13;1.40;;;;;;;;;;5107040;28;20042;-76
2023/03/17 14:30:31;;;;;;;9.65;1.38;;;;;;;;;;5114383;28;20043;-76
2023/03/17 14:33:21;;;;;;;7.70;1.55;;;;;;;;;;5114839;28;20085;-75
2023/03/17 14:35:50;;;;;;;10.93;1.27;;;;;;;;;;5113750;28;20044;-76
2023/03/17 14:38:29;;;;;;;7.25;1.52;;;;;;;;;;5113998;28;20100;-75
2023/03/17 14:41:05;;;;;;;10.02;1.63;;;;;;;;;;5112863;28;20049;-75
2023/03/17 14:43:32;;;;;;;9.48;1.50;;;;;;;;;;5110723;28;20050;-76
2023/03/17 14:46:04;;;;;;;12.73;1.77;;;;;;;;;;5111642;28;20058;-75
2023/03/17 14:48:35;;;;;;;9.43;1.60;;;;;;;;;;5102088;28;20047;-75
2023/03/17 14:51:06;;;;;;;8.43;1.95;;;;;;;;;;5114645;28;20069;-76